Time;durP1;ratioP1;P1;durP2;ratioP2;P2;SDS_P1;SDS_P2;PMS_P1;PMS_P2;Temp;Humidity;BMP_temperature;BMP_pressure;BME280_temperature;BME280_humidity;BME280_pressure;Samples;Min_cycle;Max_cycle;Signal;HPM_P1;HPM_P2
2021/06/18 00:01:16;;;;;;;13.15;7.95;;;24.50;77.20;;;;;;5071087;28;20048;-65
2021/06/18 00:03:42;;;;;;;11.63;7.80;;;24.50;77.20;;;;;;5071811;28;20512;-67
2021/06/18 00:06:07;;;;;;;12.18;8.18;;;24.50;77.20;;;;;;5071673;28;20099;-66
2021/06/18 00:08:33;;;;;;;12.20;8.48;;;24.40;77.30;;;;;;5072233;28;20031;-65
2021/06/18 00:10:58;;;;;;;15.73;8.40;;;24.40;77.30;;;;;;5070931;28;20023;-67
2021/06/18 00:13:24;;;;;;;11.98;7.78;;;24.40;77.20;;;;;;5071778;28;20020;-65
2021/06/18 00:15:49;;;;;;;14.43;8.05;;;24.40;77.30;;;;;;5072023;28;20037;-65
2021/06/18 00:18:15;;;;;;;13.48;8.23;;;24.50;77.10;;;;;;5071747;28;20074;-65
2021/06/18 00:20:41;;;;;;;11.98;7.75;;;24.50;77.10;;;;;;5087675;28;20021;-67
2021/06/18 00:23:06;;;;;;;11.95;8.13;;;24.50;77.10;;;;;;5071924;28;20100;-65
2021/06/18 00:25:32;;;;;;;12.38;7.70;;;24.50;77.10;;;;;;5071772;28;20056;-65
2021/06/18 00:27:58;;;;;;;13.65;7.75;;;24.50;77.00;;;;;;5071994;28;20546;-66
2021/06/18 00:30:24;;;;;;;11.20;7.63;;;24.40;77.00;;;;;;5071948;28;20135;-66
2021/06/18 00:32:50;;;;;;;12.07;7.82;;;24.40;77.20;;;;;;5066534;28;20067;-65
2021/06/18 00:35:15;;;;;;;10.63;7.47;;;24.40;77.10;;;;;;5061549;28;20409;-65
2021/06/18 00:37:41;;;;;;;10.10;7.78;;;24.40;77.30;;;;;;5050453;28;20021;-65
2021/06/18 00:40:07;;;;;;;13.02;7.82;;;24.40;77.30;;;;;;5050420;28;20047;-65
2021/06/18 00:42:34;;;;;;;13.82;7.80;;;24.30;77.20;;;;;;5051601;28;20036;-65
2021/06/18 00:44:59;;;;;;;12.07;7.85;;;24.40;77.30;;;;;;5051338;28;20402;-64
2021/06/18 00:47:25;;;;;;;11.40;7.25;;;24.40;77.20;;;;;;5051390;28;20112;-65
2021/06/18 00:49:52;;;;;;;12.52;7.72;;;24.40;77.30;;;;;;5050328;28;20025;-65
2021/06/18 00:52:18;;;;;;;12.70;7.50;;;24.40;77.10;;;;;;5051881;28;20389;-65
2021/06/18 00:54:46;;;;;;;12.18;7.80;;;24.30;77.40;;;;;;5051039;28;20025;-62
2021/06/18 00:57:12;;;;;;;12.05;8.23;;;24.40;77.40;;;;;;5051581;28;20021;-66
2021/06/18 00:59:37;;;;;;;12.82;7.30;;;24.30;77.30;;;;;;5051520;28;20087;-65
2021/06/18 01:02:03;;;;;;;11.30;6.97;;;24.30;77.30;;;;;;5051333;28;20033;-66
2021/06/18 01:04:30;;;;;;;11.60;7.03;;;24.30;77.10;;;;;;5050984;28;20068;-65
2021/06/18 01:07:06;;;;;;;10.63;7.00;;;24.30;76.90;;;;;;5050981;28;20029;-65
2021/06/18 01:09:40;;;;;;;12.57;6.93;;;24.30;76.90;;;;;;5051442;28;20035;-65
2021/06/18 01:12:12;;;;;;;10.77;8.07;;;24.30;76.90;;;;;;5051346;28;20071;-65
2021/06/18 01:14:47;;;;;;;10.77;7.15;;;24.30;76.70;;;;;;5049461;28;20028;-65
2021/06/18 01:17:20;;;;;;;11.57;7.68;;;24.20;76.70;;;;;;5051388;28;20033;-65
2021/06/18 01:20:10;;;;;;;13.35;8.05;;;24.10;76.70;;;;;;5051371;28;20025;-67
2021/06/18 01:22:37;;;;;;;11.75;7.28;;;24.10;76.60;;;;;;5050207;28;20398;-67
2021/06/18 01:25:26;;;;;;;14.52;7.22;;;24.10;76.40;;;;;;5049424;28;20025;-65
2021/06/18 01:27:52;;;;;;;12.32;7.55;;;24.10;76.40;;;;;;5051298;28;20087;-65
2021/06/18 01:30:29;;;;;;;11.35;7.60;;;24.10;76.40;;;;;;5050356;28;20572;-65
2021/06/18 01:32:57;;;;;;;11.25;7.80;;;24.10;76.70;;;;;;5053883;28;20029;-67
2021/06/18 01:35:27;;;;;;;12.07;8.07;;;24.10;76.30;;;;;;5054401;28;20048;-65
2021/06/18 01:37:56;;;;;;;11.05;7.43;;;24.10;76.20;;;;;;5055092;28;20031;-65
2021/06/18 01:40:24;;;;;;;12.43;7.57;;;24.10;76.10;;;;;;5053715;28;20025;-65
2021/06/18 01:42:50;;;;;;;11.38;7.50;;;24.10;76.10;;;;;;5053744;28;20025;-65
2021/06/18 01:45:18;;;;;;;10.43;7.60;;;24.00;76.50;;;;;;5054544;28;20116;-64
2021/06/18 01:47:46;;;;;;;13.23;7.97;;;24.00;76.60;;;;;;5054779;28;20029;-66
2021/06/18 01:50:17;;;;;;;13.63;8.02;;;24.00;76.40;;;;;;5054787;28;20178;-68
2021/06/18 01:52:55;;;;;;;10.65;7.78;;;24.00;76.30;;;;;;5053160;28;20029;-65
2021/06/18 01:55:24;;;;;;;12.02;8.20;;;24.00;76.10;;;;;;5053341;28;20032;-64
2021/06/18 01:57:52;;;;;;;10.77;8.40;;;23.90;76.30;;;;;;5054759;28;20023;-64
2021/06/18 02:00:19;;;;;;;9.80;8.00;;;23.90;76.30;;;;;;5054686;28;20024;-65
2021/06/18 02:02:45;;;;;;;11.75;7.97;;;23.90;76.40;;;;;;5053227;28;20025;-68
2021/06/18 02:05:12;;;;;;;12.60;7.90;;;23.80;76.50;;;;;;5054209;28;20098;-65
2021/06/18 02:07:38;;;;;;;10.60;7.30;;;23.80;76.50;;;;;;5065854;28;20021;-66
2021/06/18 02:10:07;;;;;;;11.35;7.05;;;23.80;76.50;;;;;;5072960;28;20020;-65
2021/06/18 02:12:33;;;;;;;12.70;8.10;;;23.80;76.60;;;;;;5061080;28;20025;-65
2021/06/18 02:14:59;;;;;;;11.57;8.30;;;23.80;76.70;;;;;;5069194;28;20023;-68
2021/06/18 02:17:27;;;;;;;12.68;8.10;;;23.80;76.50;;;;;;5074316;28;20019;-68
2021/06/18 02:19:56;;;;;;;11.70;8.57;;;23.80;76.10;;;;;;5074345;28;20085;-64
2021/06/18 02:22:22;;;;;;;14.20;8.80;;;23.90;76.40;;;;;;5073046;28;20078;-68
2021/06/18 02:24:49;;;;;;;13.27;7.95;;;23.90;76.20;;;;;;5072670;28;20440;-65
2021/06/18 02:27:17;;;;;;;14.10;8.15;;;23.80;76.10;;;;;;5074126;28;20039;-65
2021/06/18 02:29:43;;;;;;;11.98;8.35;;;23.90;76.20;;;;;;5072840;28;20103;-65
2021/06/18 02:32:11;;;;;;;14.93;8.93;;;23.90;75.90;;;;;;5072747;28;20045;-65
2021/06/18 02:34:38;;;;;;;12.43;8.68;;;23.90;75.80;;;;;;5073721;28;20024;-65
2021/06/18 02:37:05;;;;;;;11.20;8.30;;;23.90;75.80;;;;;;5074080;28;20044;-64
2021/06/18 02:39:31;;;;;;;11.35;7.95;;;23.90;75.70;;;;;;5074007;28;20106;-65
2021/06/18 02:41:56;;;;;;;12.50;8.35;;;24.00;75.60;;;;;;5073808;28;20429;-65
2021/06/18 02:44:22;;;;;;;11.63;8.27;;;23.90;75.80;;;;;;5073593;28;20031;-68
2021/06/18 02:47:10;;;;;;;12.60;8.88;;;23.80;75.90;;;;;;5072527;28;20020;-65
2021/06/18 02:49:48;;;;;;;12.98;9.45;;;23.60;77.00;;;;;;5072609;28;20025;-65
2021/06/18 02:52:34;;;;;;;12.73;9.68;;;23.40;77.90;;;;;;5073585;28;20505;-65
2021/06/18 02:55:15;;;;;;;12.23;9.18;;;23.40;78.60;;;;;;5073326;28;20029;-64
2021/06/18 02:57:50;;;;;;;11.40;8.88;;;23.50;77.50;;;;;;5073775;28;20062;-66
2021/06/18 03:00:16;;;;;;;12.82;9.35;;;23.60;77.00;;;;;;5073570;28;20035;-65
2021/06/18 03:02:54;;;;;;;13.48;9.60;;;23.50;77.80;;;;;;5072246;28;20111;-64
2021/06/18 03:05:22;;;;;;;12.10;9.73;;;23.30;78.10;;;;;;5131459;22;20499;-63
2021/06/18 03:08:00;;;;;;;15.40;10.13;;;23.20;79.10;;;;;;5071356;28;20087;-63
2021/06/18 03:10:28;;;;;;;15.68;9.35;;;23.20;79.30;;;;;;5073164;28;20041;-65
2021/06/18 03:13:18;;;;;;;12.10;9.40;;;23.30;78.90;;;;;;5073231;28;20032;-62
2021/06/18 03:15:46;;;;;;;10.80;9.00;;;23.30;78.40;;;;;;5072723;28;20071;-65
2021/06/18 03:18:14;;;;;;;13.77;9.52;;;23.20;77.90;;;;;;5073164;28;20029;-63
2021/06/18 03:20:42;;;;;;;13.73;9.60;;;23.00;79.10;;;;;;5073061;28;20486;-62
2021/06/18 03:23:12;;;;;;;10.93;8.70;;;23.00;79.60;;;;;;5073028;28;20028;-63
2021/06/18 03:25:39;;;;;;;11.15;8.20;;;23.10;79.20;;;;;;5072861;28;20028;-62
2021/06/18 03:28:06;;;;;;;11.07;7.82;;;23.20;79.20;;;;;;5073061;28;20535;-64
2021/06/18 03:30:33;;;;;;;13.10;7.97;;;23.30;78.70;;;;;;5072923;28;20031;-62
2021/06/18 03:33:00;;;;;;;11.65;7.53;;;23.40;78.60;;;;;;5072793;28;20112;-63
2021/06/18 03:35:28;;;;;;;12.32;8.00;;;23.40;78.60;;;;;;5072500;28;20029;-61
2021/06/18 03:37:53;;;;;;;12.40;8.05;;;23.40;78.40;;;;;;5072835;28;20031;-65
2021/06/18 03:40:22;;;;;;;12.15;8.10;;;23.40;78.00;;;;;;5071319;28;20024;-63
2021/06/18 03:42:49;;;;;;;11.10;7.47;;;23.40;78.00;;;;;;5072653;28;20016;-62
2021/06/18 03:45:16;;;;;;;9.80;7.40;;;23.40;77.90;;;;;;5070967;28;20048;-64
2021/06/18 03:47:43;;;;;;;11.20;7.88;;;23.50;78.00;;;;;;5072619;28;20119;-62
2021/06/18 03:50:10;;;;;;;10.70;7.50;;;23.40;77.60;;;;;;5072562;28;20032;-63
2021/06/18 03:52:36;;;;;;;10.13;7.00;;;23.40;77.90;;;;;;5072541;28;20040;-62
2021/06/18 03:55:07;;;;;;;13.38;8.40;;;23.50;77.90;;;;;;5071578;28;20024;-62
2021/06/18 03:57:35;;;;;;;10.68;8.32;;;23.50;77.60;;;;;;5072483;28;20367;-63
2021/06/18 04:00:03;;;;;;;10.38;7.60;;;23.50;77.70;;;;;;5070985;28;20033;-65
2021/06/18 04:02:30;;;;;;;10.57;7.88;;;23.50;77.60;;;;;;5071639;28;20032;-65
2021/06/18 04:04:56;;;;;;;11.80;7.57;;;23.40;78.00;;;;;;5071808;28;20040;-62
2021/06/18 04:07:22;;;;;;;12.82;7.90;;;23.40;78.60;;;;;;5071840;28;20039;-62
2021/06/18 04:09:49;;;;;;;10.88;7.40;;;23.40;78.10;;;;;;5072242;28;20040;-62
2021/06/18 04:12:15;;;;;;;10.48;7.07;;;23.50;78.10;;;;;;5070079;28;20043;-62
2021/06/18 04:14:41;;;;;;;11.82;8.18;;;23.50;77.80;;;;;;5069792;28;20881;-65
2021/06/18 04:17:08;;;;;;;13.63;10.30;;;23.50;77.90;;;;;;5065138;28;20104;-69
2021/06/18 04:19:35;;;;;;;14.10;9.73;;;23.30;78.30;;;;;;5042616;28;20441;-66
2021/06/18 04:22:02;;;;;;;12.43;9.52;;;23.20;78.80;;;;;;5065945;28;20439;-63
2021/06/18 04:24:28;;;;;;;13.05;8.05;;;23.20;79.00;;;;;;5045805;28;20051;-65
2021/06/18 04:26:54;;;;;;;10.73;8.02;;;23.40;78.90;;;;;;5047415;28;20413;-67
2021/06/18 04:29:20;;;;;;;11.40;7.85;;;23.40;78.50;;;;;;5063308;28;20532;-65
2021/06/18 04:31:45;;;;;;;11.90;8.60;;;23.50;78.30;;;;;;5060781;28;20115;-62
2021/06/18 04:34:11;;;;;;;11.68;7.85;;;23.50;78.00;;;;;;5065032;28;20086;-63
2021/06/18 04:36:37;;;;;;;12.07;7.78;;;23.50;77.90;;;;;;5065537;28;20020;-63
2021/06/18 04:39:07;;;;;;;12.00;8.13;;;23.50;78.10;;;;;;5065498;28;20036;-63
2021/06/18 04:41:33;;;;;;;10.98;8.02;;;23.60;78.70;;;;;;5065367;28;20075;-64
2021/06/18 04:43:59;;;;;;;11.65;8.38;;;23.60;78.40;;;;;;5065146;28;20060;-65
2021/06/18 04:46:25;;;;;;;14.73;8.90;;;23.50;79.50;;;;;;5046856;28;20079;-66
2021/06/18 04:48:50;;;;;;;14.80;9.88;;;23.50;79.80;;;;;;5045879;28;20030;-65
2021/06/18 04:51:17;;;;;;;14.35;9.38;;;23.50;79.70;;;;;;5065238;28;20031;-65
2021/06/18 04:53:44;;;;;;;14.80;9.75;;;23.60;79.60;;;;;;5064777;28;20036;-67
2021/06/18 04:56:09;;;;;;;15.80;9.98;;;23.60;79.60;;;;;;5047036;28;20470;-65
2021/06/18 04:58:35;;;;;;;15.63;10.63;;;23.50;79.60;;;;;;5047320;28;20028;-65
2021/06/18 05:01:01;;;;;;;13.27;10.00;;;23.50;79.40;;;;;;5065248;28;20478;-63
2021/06/18 05:03:26;;;;;;;14.77;10.32;;;23.50;79.50;;;;;;5046990;28;20024;-61
2021/06/18 05:05:52;;;;;;;14.35;10.68;;;23.40;80.90;;;;;;5066499;28;20040;-63
2021/06/18 05:08:18;;;;;;;16.95;10.82;;;23.40;80.60;;;;;;5051660;28;20117;-62
2021/06/18 05:10:43;;;;;;;16.77;10.95;;;23.30;81.60;;;;;;5069509;28;20219;-62
2021/06/18 05:13:09;;;;;;;14.50;10.52;;;23.30;81.90;;;;;;5041458;28;20029;-62
2021/06/18 05:15:34;;;;;;;15.82;11.90;;;23.40;81.90;;;;;;5069219;28;20075;-68
2021/06/18 05:18:01;;;;;;;18.77;12.77;;;23.60;81.10;;;;;;5069641;28;20020;-62
2021/06/18 05:20:27;;;;;;;35.28;26.75;;;23.70;80.90;;;;;;5069860;28;20366;-66
2021/06/18 05:22:53;;;;;;;34.78;23.38;;;23.70;80.30;;;;;;5051572;28;20031;-65
2021/06/18 05:25:18;;;;;;;32.72;20.63;;;23.70;81.70;;;;;;5084764;28;20304;-63
2021/06/18 05:27:44;;;;;;;28.38;16.25;;;23.80;80.00;;;;;;5069482;28;20086;-64
2021/06/18 05:30:11;;;;;;;26.48;15.77;;;23.90;80.40;;;;;;5051642;28;20031;-63
2021/06/18 05:32:37;;;;;;;22.73;13.65;;;23.90;79.80;;;;;;5069244;28;20024;-68
2021/06/18 05:35:04;;;;;;;21.70;13.52;;;23.90;79.20;;;;;;5068784;28;20615;-61
2021/06/18 05:37:29;;;;;;;21.02;12.70;;;24.00;79.30;;;;;;5050791;28;20033;-62
2021/06/18 05:39:55;;;;;;;18.25;12.88;;;24.00;78.00;;;;;;5050942;28;20020;-66
2021/06/18 05:42:21;;;;;;;17.50;11.98;;;24.00;77.90;;;;;;5068810;28;20107;-66
2021/06/18 05:44:46;;;;;;;17.48;11.63;;;24.10;77.40;;;;;;5068634;28;20090;-66
2021/06/18 05:47:12;;;;;;;26.10;11.30;;;24.20;77.70;;;;;;5068852;28;20115;-69
2021/06/18 05:49:37;;;;;;;16.58;10.50;;;24.10;76.60;;;;;;5069167;28;20399;-62
2021/06/18 05:52:03;;;;;;;21.70;10.73;;;24.10;77.60;;;;;;5068376;28;20060;-62
2021/06/18 05:54:28;;;;;;;18.83;10.15;;;24.20;76.90;;;;;;5050323;28;20033;-61
2021/06/18 05:56:54;;;;;;;15.80;9.05;;;24.30;76.30;;;;;;5050506;28;20128;-61
2021/06/18 05:59:20;;;;;;;16.58;9.75;;;24.30;75.90;;;;;;5068576;28;20432;-62
2021/06/18 06:01:46;;;;;;;12.70;8.57;;;24.40;75.90;;;;;;5068443;28;20029;-67
2021/06/18 06:04:11;;;;;;;13.35;8.35;;;24.40;75.40;;;;;;5068141;28;20089;-67
2021/06/18 06:06:37;;;;;;;15.93;9.30;;;24.50;75.30;;;;;;5068444;28;20902;-65
2021/06/18 06:09:03;;;;;;;15.38;8.95;;;24.50;74.70;;;;;;5050528;28;20068;-63
2021/06/18 06:11:30;;;;;;;14.07;9.48;;;24.60;74.70;;;;;;5068392;28;20100;-69
2021/06/18 06:14:01;;;;;;;11.90;8.23;;;24.60;74.70;;;;;;5050229;28;20032;-64
2021/06/18 06:16:28;;;;;;;14.50;8.57;;;24.70;74.50;;;;;;5067126;28;20016;-63
2021/06/18 06:18:54;;;;;;;11.55;8.30;;;24.70;74.40;;;;;;5048494;28;20036;-64
2021/06/18 06:21:20;;;;;;;14.02;8.50;;;24.80;74.10;;;;;;5067100;28;20050;-64
2021/06/18 06:23:48;;;;;;;14.55;8.05;;;24.80;74.50;;;;;;5049126;28;20033;-66
2021/06/18 06:26:14;;;;;;;15.07;7.82;;;24.90;73.70;;;;;;5049937;28;20048;-64
2021/06/18 06:28:39;;;;;;;15.40;8.18;;;24.90;73.50;;;;;;5049670;28;20474;-63
2021/06/18 06:31:05;;;;;;;13.07;8.07;;;24.90;73.50;;;;;;5068083;28;20039;-64
2021/06/18 06:33:31;;;;;;;14.05;7.80;;;24.90;73.40;;;;;;5067496;28;20036;-65
2021/06/18 06:35:56;;;;;;;12.32;7.80;;;24.90;73.20;;;;;;5049770;28;20028;-67
2021/06/18 06:38:22;;;;;;;11.57;7.70;;;25.00;73.40;;;;;;5067581;28;20035;-65
2021/06/18 06:40:48;;;;;;;11.55;7.90;;;25.00;73.30;;;;;;5049661;28;20028;-63
2021/06/18 06:43:14;;;;;;;10.98;8.00;;;25.00;73.10;;;;;;5049232;28;20024;-63
2021/06/18 06:45:40;;;;;;;11.48;7.40;;;25.10;73.10;;;;;;5067563;28;20412;-63
2021/06/18 06:48:06;;;;;;;12.60;7.22;;;25.20;72.70;;;;;;5067443;28;20180;-62
2021/06/18 06:50:32;;;;;;;13.35;7.88;;;25.20;72.60;;;;;;5067651;28;20028;-64
2021/06/18 06:52:57;;;;;;;12.02;7.45;;;25.20;72.30;;;;;;5067341;28;20036;-67
2021/06/18 06:55:23;;;;;;;12.30;7.55;;;25.30;72.60;;;;;;5048940;28;20029;-64
2021/06/18 06:57:51;;;;;;;11.90;7.22;;;25.30;72.40;;;;;;5067221;28;20438;-62
2021/06/18 07:00:17;;;;;;;12.00;6.80;;;25.30;71.90;;;;;;5067483;28;20028;-66
2021/06/18 07:02:43;;;;;;;13.27;6.88;;;25.40;71.70;;;;;;5049160;28;20033;-62
2021/06/18 07:05:09;;;;;;;12.40;7.15;;;25.40;71.80;;;;;;5066834;28;20035;-64
2021/06/18 07:07:36;;;;;;;10.15;6.90;;;25.40;71.60;;;;;;5067104;28;20028;-66
2021/06/18 07:10:02;;;;;;;10.43;6.97;;;25.50;71.50;;;;;;5067192;28;20029;-63
2021/06/18 07:12:28;;;;;;;10.38;6.50;;;25.50;71.10;;;;;;5067119;28;20437;-64
2021/06/18 07:14:55;;;;;;;10.63;6.72;;;25.60;71.10;;;;;;5066878;28;20103;-65
2021/06/18 07:17:21;;;;;;;10.07;6.50;;;25.60;70.80;;;;;;5049341;28;20056;-65
2021/06/18 07:19:47;;;;;;;10.63;6.55;;;25.60;70.70;;;;;;5067205;28;20032;-63
2021/06/18 07:22:16;;;;;;;9.93;6.93;;;25.70;70.70;;;;;;5067101;28;20028;-66
2021/06/18 07:24:41;;;;;;;11.70;6.65;;;25.70;70.60;;;;;;5066000;28;20113;-63
2021/06/18 07:27:07;;;;;;;8.55;6.35;;;25.80;70.40;;;;;;5067066;28;20490;-65
2021/06/18 07:29:32;;;;;;;11.85;6.57;;;25.80;70.10;;;;;;5065778;28;20032;-66
2021/06/18 07:31:58;;;;;;;10.52;5.85;;;25.80;70.10;;;;;;5049057;28;20031;-63
2021/06/18 07:34:24;;;;;;;9.65;6.43;;;25.80;69.80;;;;;;5066362;28;20203;-61
2021/06/18 07:36:49;;;;;;;9.05;6.32;;;25.90;69.60;;;;;;5062126;28;20059;-64
2021/06/18 07:39:15;;;;;;;9.73;6.10;;;25.90;69.20;;;;;;5066578;28;20029;-67
2021/06/18 07:41:41;;;;;;;8.32;5.60;;;26.00;69.10;;;;;;5055690;28;20024;-64
2021/06/18 07:44:07;;;;;;;9.52;6.15;;;26.10;68.60;;;;;;5066144;28;20032;-65
2021/06/18 07:46:33;;;;;;;9.77;6.40;;;26.10;68.40;;;;;;5066379;28;20032;-64
2021/06/18 07:48:58;;;;;;;9.07;5.80;;;26.20;68.40;;;;;;5066385;28;20392;-67
2021/06/18 07:51:24;;;;;;;8.07;6.10;;;26.30;68.00;;;;;;5048039;28;20051;-66
2021/06/18 07:53:49;;;;;;;8.68;5.55;;;26.30;67.90;;;;;;5047571;28;20102;-65
2021/06/18 07:56:23;;;;;;;9.52;5.65;;;26.30;67.60;;;;;;5064613;28;20031;-64
2021/06/18 07:58:48;;;;;;;8.55;5.55;;;26.40;67.40;;;;;;5065697;28;20105;-65
2021/06/18 08:01:14;;;;;;;10.05;6.40;;;26.50;68.20;;;;;;5065829;28;20062;-63
2021/06/18 08:03:40;;;;;;;9.77;5.93;;;26.60;67.10;;;;;;5056479;28;20024;-63
2021/06/18 08:06:05;;;;;;;8.27;5.90;;;26.50;67.40;;;;;;5065397;28;20095;-67
2021/06/18 08:08:31;;;;;;;8.98;6.05;;;26.60;66.80;;;;;;5065445;28;20074;-66
2021/06/18 08:10:56;;;;;;;9.60;6.00;;;26.60;67.00;;;;;;5065953;28;20043;-65
2021/06/18 08:13:22;;;;;;;8.18;5.38;;;26.60;66.60;;;;;;5065233;28;20025;-66
2021/06/18 08:15:48;;;;;;;8.55;5.60;;;26.70;66.50;;;;;;5065625;28;20473;-64
2021/06/18 08:18:13;;;;;;;9.35;5.45;;;26.70;66.30;;;;;;5063952;28;20483;-63
2021/06/18 08:20:39;;;;;;;8.25;5.40;;;26.80;66.70;;;;;;5065501;28;20115;-64
2021/06/18 08:23:04;;;;;;;8.90;5.32;;;26.80;65.90;;;;;;5065389;28;20412;-63
2021/06/18 08:25:30;;;;;;;8.70;5.47;;;26.90;66.20;;;;;;5065255;28;20028;-65
2021/06/18 08:27:56;;;;;;;8.88;5.28;;;27.00;65.90;;;;;;5065221;28;20461;-62
2021/06/18 08:30:24;;;;;;;9.30;5.55;;;27.00;65.70;;;;;;5065436;28;20389;-65
2021/06/18 08:32:50;;;;;;;8.77;5.50;;;27.00;65.50;;;;;;5065270;28;20771;-62
2021/06/18 08:35:15;;;;;;;8.25;5.63;;;27.00;65.40;;;;;;5064825;28;20025;-62
2021/06/18 08:37:41;;;;;;;9.82;5.60;;;27.10;65.60;;;;;;5065080;28;20661;-62
2021/06/18 08:40:07;;;;;;;8.20;5.53;;;27.10;65.30;;;;;;5046672;28;20025;-63
2021/06/18 08:42:34;;;;;;;9.32;5.57;;;27.20;65.50;;;;;;5047072;28;20119;-69
2021/06/18 08:44:59;;;;;;;9.07;5.72;;;27.20;65.20;;;;;;5047078;28;20370;-63
2021/06/18 08:47:25;;;;;;;10.48;6.10;;;27.20;65.50;;;;;;5064982;28;20278;-64
2021/06/18 08:49:51;;;;;;;8.73;5.40;;;27.30;64.70;;;;;;5065124;28;20035;-63
2021/06/18 08:52:18;;;;;;;9.75;5.80;;;27.30;65.10;;;;;;5047130;28;20108;-63
2021/06/18 08:54:45;;;;;;;10.75;6.25;;;27.40;64.80;;;;;;5046985;28;20119;-64
2021/06/18 08:57:16;;;;;;;10.82;5.78;;;27.40;65.00;;;;;;5059734;28;20028;-65
2021/06/18 08:59:42;;;;;;;9.50;5.35;;;27.40;65.10;;;;;;5054218;28;20523;-69
2021/06/18 09:02:09;;;;;;;17.42;5.95;;;27.50;64.20;;;;;;5059676;28;20478;-67
2021/06/18 09:05:05;;;;;;;10.82;6.03;;;27.60;64.40;;;;;;5069856;28;20052;-64
2021/06/18 09:07:51;;;;;;;11.23;6.05;;;27.60;64.20;;;;;;5069973;28;20020;-63
2021/06/18 09:10:36;;;;;;;10.25;5.93;;;27.60;64.70;;;;;;5069514;28;20060;-63
2021/06/18 09:13:13;;;;;;;10.02;6.50;;;27.70;64.10;;;;;;5068330;28;20033;-63
2021/06/18 09:15:59;;;;;;;8.73;6.07;;;27.80;64.00;;;;;;5067937;28;20021;-63
2021/06/18 09:18:30;;;;;;;9.95;6.80;;;27.70;63.80;;;;;;5070175;28;20051;-64
2021/06/18 09:21:13;;;;;;;;;;;27.80;63.80;;;;;;5069780;28;20029;-64
2021/06/18 09:23:44;;;;;;;10.18;6.20;;;27.90;63.80;;;;;;5069983;28;19927;-63
2021/06/18 09:26:18;;;;;;;;;;;27.90;63.40;;;;;;5070434;28;20021;-63
2021/06/18 09:29:03;;;;;;;8.10;5.70;;;27.90;63.70;;;;;;5070137;28;19912;-63
2021/06/18 09:31:41;;;;;;;11.27;6.38;;;28.00;63.50;;;;;;5071333;28;20021;-61
2021/06/18 09:34:08;;;;;;;10.40;6.03;;;28.00;63.30;;;;;;5071046;28;20478;-63
2021/06/18 09:36:36;;;;;;;10.73;6.85;;;28.00;63.10;;;;;;5071196;28;20447;-63
2021/06/18 09:39:04;;;;;;;9.23;6.63;;;28.10;63.00;;;;;;5071335;28;20174;-63
2021/06/18 09:41:54;;;;;;;10.45;6.93;;;28.10;63.10;;;;;;5071129;28;20073;-63
2021/06/18 09:44:22;;;;;;;10.40;6.63;;;28.10;62.80;;;;;;5069669;28;20036;-63
2021/06/18 09:46:56;;;;;;;9.98;6.25;;;28.20;62.80;;;;;;5069914;28;20025;-63
2021/06/18 09:49:31;;;;;;;9.50;6.93;;;28.20;62.60;;;;;;5071135;28;20108;-63
2021/06/18 09:52:04;;;;;;;11.02;6.47;;;28.30;62.60;;;;;;5072433;28;20401;-63
2021/06/18 09:54:32;;;;;;;10.18;6.80;;;28.30;62.40;;;;;;5073156;28;20025;-62
2021/06/18 09:57:15;;;;;;;9.43;6.60;;;28.30;62.20;;;;;;5073792;28;20031;-62
2021/06/18 10:00:01;;;;;;;9.93;7.43;;;28.40;62.60;;;;;;5074698;28;20082;-61
2021/06/18 10:02:51;;;;;;;10.30;6.85;;;28.40;61.80;;;;;;5074635;28;20032;-61
2021/06/18 10:05:17;;;;;;;;;;;28.50;61.70;;;;;;5069332;28;20052;-62
2021/06/18 10:07:45;;;;;;;9.48;7.00;;;28.60;61.70;;;;;;5074832;28;19911;-62
2021/06/18 10:10:16;;;;;;;10.63;7.10;;;28.60;61.60;;;;;;5074478;28;20028;-62
2021/06/18 10:12:41;;;;;;;;;;;28.70;61.50;;;;;;5073791;28;20036;-62
2021/06/18 10:15:10;;;;;;;9.25;7.15;;;28.70;61.60;;;;;;5074158;28;20300;-62
2021/06/18 10:17:38;;;;;;;9.77;7.20;;;28.80;61.40;;;;;;5073153;28;20027;-61
2021/06/18 10:20:07;;;;;;;10.10;7.22;;;28.90;61.00;;;;;;5073104;28;20192;-62
2021/06/18 10:22:38;;;;;;;11.18;7.28;;;28.90;60.90;;;;;;5074743;28;20020;-62
2021/06/18 10:25:08;;;;;;;10.45;7.05;;;29.00;61.10;;;;;;5074143;28;20119;-62
2021/06/18 10:27:39;;;;;;;10.93;7.20;;;29.00;60.80;;;;;;5074235;28;20086;-63
2021/06/18 10:30:26;;;;;;;10.68;7.45;;;29.00;60.60;;;;;;5074626;28;20024;-62
2021/06/18 10:32:53;;;;;;;10.93;7.72;;;29.10;60.30;;;;;;5074276;28;20028;-62
2021/06/18 10:35:41;;;;;;;10.63;7.45;;;29.20;60.10;;;;;;5073543;28;20040;-63
2021/06/18 10:38:34;;;;;;;10.57;7.82;;;29.20;60.00;;;;;;5074087;28;20048;-62
2021/06/18 10:41:03;;;;;;;10.00;7.45;;;29.30;59.90;;;;;;5061984;28;20028;-62
2021/06/18 10:43:42;;;;;;;12.15;7.35;;;29.30;59.80;;;;;;5074084;28;20032;-62
2021/06/18 10:46:11;;;;;;;10.23;7.15;;;29.30;60.00;;;;;;5074111;28;20028;-62
2021/06/18 10:48:55;;;;;;;9.95;7.75;;;29.30;60.00;;;;;;5072584;28;20113;-63
2021/06/18 10:51:27;;;;;;;12.07;7.20;;;29.30;60.00;;;;;;5072690;28;20119;-63
2021/06/18 10:54:04;;;;;;;9.57;7.40;;;29.30;60.20;;;;;;5073414;28;20077;-63
2021/06/18 10:56:44;;;;;;;11.70;7.78;;;29.40;60.00;;;;;;5073835;28;20025;-61
2021/06/18 10:59:11;;;;;;;;;;;29.40;60.20;;;;;;5072886;28;20021;-63
2021/06/18 11:01:36;;;;;;;10.65;7.70;;;29.40;60.10;;;;;;5067270;28;19908;-60
2021/06/18 11:04:03;;;;;;;9.93;6.93;;;29.40;60.10;;;;;;5051858;28;20065;-61
2021/06/18 11:06:47;;;;;;;9.90;7.63;;;29.40;59.60;;;;;;5072666;28;20477;-62
2021/06/18 11:09:33;;;;;;;9.43;6.88;;;29.30;60.20;;;;;;5071725;28;20031;-62
2021/06/18 11:12:18;;;;;;;12.93;7.55;;;29.30;60.30;;;;;;5068224;28;20022;-66
2021/06/18 11:14:44;;;;;;;10.52;7.43;;;29.30;60.60;;;;;;5061884;28;20032;-62
2021/06/18 11:17:38;;;;;;;11.65;7.50;;;29.20;60.60;;;;;;5073156;28;20025;-63
2021/06/18 11:20:13;;;;;;;11.10;7.93;;;29.20;60.70;;;;;;5073278;28;20017;-63
2021/06/18 11:22:50;;;;;;;10.63;7.75;;;29.20;61.40;;;;;;5067729;28;20012;-64
2021/06/18 11:25:38;;;;;;;12.30;7.88;;;29.10;62.00;;;;;;5047835;28;20029;-62
2021/06/18 11:28:19;;;;;;;9.35;7.10;;;28.90;62.50;;;;;;5072902;28;20053;-63
2021/06/18 11:31:08;;;;;;;10.43;7.75;;;28.50;63.60;;;;;;5057626;28;20028;-62
2021/06/18 11:33:39;;;;;;;13.15;7.93;;;28.00;65.10;;;;;;5071734;28;20511;-63
2021/06/18 11:36:05;;;;;;;13.20;8.77;;;27.70;66.30;;;;;;5068437;28;20020;-62
2021/06/18 11:38:31;;;;;;;12.02;7.88;;;27.50;67.60;;;;;;5061823;28;20499;-62
2021/06/18 11:40:59;;;;;;;9.90;7.72;;;27.40;68.20;;;;;;5071184;28;20020;-62
2021/06/18 11:43:33;;;;;;;12.13;8.13;;;27.30;68.80;;;;;;5072017;28;20021;-61
2021/06/18 11:45:59;;;;;;;10.57;8.70;;;27.20;69.00;;;;;;5067270;28;20016;-62
2021/06/18 11:48:26;;;;;;;10.55;8.35;;;27.10;69.30;;;;;;5071801;28;20024;-62
2021/06/18 11:50:53;;;;;;;12.32;8.43;;;27.10;69.30;;;;;;5071165;28;20032;-62
2021/06/18 11:53:18;;;;;;;10.02;7.55;;;27.10;69.30;;;;;;5072387;28;20032;-58
2021/06/18 11:55:55;;;;;;;11.13;7.88;;;27.10;69.50;;;;;;5072406;28;20436;-61
2021/06/18 11:58:32;;;;;;;11.52;7.93;;;27.00;69.90;;;;;;5072479;28;20047;-61
2021/06/18 12:01:15;;;;;;;10.38;8.02;;;27.10;70.10;;;;;;5072805;28;20529;-61
2021/06/18 12:03:42;;;;;;;10.98;8.00;;;27.00;69.70;;;;;;5072390;28;20029;-61
2021/06/18 12:06:15;;;;;;;10.10;7.82;;;27.00;70.10;;;;;;5070992;28;20028;-62
2021/06/18 12:09:05;;;;;;;10.68;7.70;;;27.00;70.10;;;;;;5071035;28;20024;-61
2021/06/18 12:11:59;;;;;;;9.75;7.80;;;27.00;70.00;;;;;;5072350;28;20074;-61
2021/06/18 12:14:32;;;;;;;11.20;8.43;;;27.00;70.00;;;;;;5070152;28;20027;-61
2021/06/18 12:16:58;;;;;;;10.38;7.75;;;27.00;70.30;;;;;;5072201;28;20035;-61
2021/06/18 12:19:26;;;;;;;9.18;7.78;;;27.00;70.10;;;;;;5072068;28;20032;-62
2021/06/18 12:22:12;;;;;;;11.07;8.25;;;27.00;70.20;;;;;;5070901;28;20060;-62
2021/06/18 12:24:46;;;;;;;9.60;7.43;;;27.00;70.20;;;;;;5071731;28;20032;-61
2021/06/18 12:27:13;;;;;;;10.98;8.50;;;27.00;70.10;;;;;;5072079;28;20083;-62
2021/06/18 12:29:54;;;;;;;9.65;7.80;;;27.00;70.00;;;;;;5070653;28;20210;-60
2021/06/18 12:32:28;;;;;;;10.30;8.40;;;27.00;70.10;;;;;;5071166;28;20029;-62
2021/06/18 12:35:06;;;;;;;10.23;8.43;;;27.00;70.60;;;;;;5063679;28;20486;-62
2021/06/18 12:37:34;;;;;;;10.75;8.15;;;26.90;71.30;;;;;;5071402;28;20033;-63
2021/06/18 12:40:06;;;;;;;11.10;7.97;;;27.00;70.80;;;;;;5061921;28;20101;-61
2021/06/18 12:42:38;;;;;;;10.02;8.13;;;27.00;70.90;;;;;;5071786;28;20021;-61
2021/06/18 12:45:16;;;;;;;10.30;8.20;;;27.00;70.50;;;;;;5071345;28;20028;-61
2021/06/18 12:47:47;;;;;;;9.63;7.95;;;27.00;70.60;;;;;;5061767;28;20129;-61
2021/06/18 12:50:23;;;;;;;9.25;7.93;;;27.10;70.40;;;;;;5071374;28;20524;-61